Orbital elements of BREEZE-M DEB
| Launched | 27 February 2006 |
| Flight ended | – |
| Launch site | Tyuratam Missile and Space Center, Kazakhstan (Also known as Baikonur Cosmodrome) |
| Owner | Commonwealth of Independent States (former USSR) |
| NORAD ID | 32497 |
| Date fetched |
Epoch osculation |
Inc. [°] |
Ecc. | RA asc node [hr] |
Arg Peri. [°] |
Mean anom [°] |
Mean motion [rev/day] |
Abs. mag |
| Date fetched |
Epoch osculation |
Inc. [°] |
Ecc. | RA asc node [hr] |
Arg Peri. [°] |
Mean anom [°] |
Mean motion [rev/day] |
Abs. mag |
| 2026 May 07 17:58 | 2026 May 04 23:06:10 | 51.6898 | 0.49715 | 3.1357 | 102.2025 | 315.6379 | 5.48625 | – |
| 2026 May 06 17:57 | 2026 May 04 23:06:10 | 51.6898 | 0.49715 | 3.1357 | 102.2025 | 315.6379 | 5.48625 | – |
| 2026 May 05 17:57 | 2026 May 04 23:06:10 | 51.6898 | 0.49715 | 3.1357 | 102.2025 | 315.6379 | 5.48625 | – |
| 2026 May 04 17:57 | 2026 Apr 27 20:31:36 | 51.6908 | 0.49711 | 3.5022 | 98.1352 | 315.6379 | 5.48625 | – |
| 2026 May 03 17:57 | 2026 Apr 27 20:31:36 | 51.6908 | 0.49711 | 3.5022 | 98.1352 | 315.6379 | 5.48625 | – |
| 2026 May 02 17:57 | 2026 Apr 27 20:31:36 | 51.6908 | 0.49711 | 3.5022 | 98.1352 | 315.6379 | 5.48625 | – |
| 2026 May 01 17:56 | 2026 Apr 27 20:31:36 | 51.6908 | 0.49711 | 3.5022 | 98.1352 | 315.6379 | 5.48625 | – |
| 2026 Apr 30 17:56 | 2026 Apr 27 20:31:36 | 51.6908 | 0.49711 | 3.5022 | 98.1352 | 315.6379 | 5.48625 | – |
| 2026 Apr 29 17:57 | 2026 Apr 24 05:02:44 | 51.6883 | 0.49706 | 3.6906 | 96.0437 | 315.6379 | 5.48625 | – |
| 2026 Apr 28 17:56 | 2026 Apr 24 05:02:44 | 51.6883 | 0.49706 | 3.6906 | 96.0437 | 315.6379 | 5.48625 | – |
| 2026 Apr 27 17:58 | 2026 Apr 24 05:02:44 | 51.6883 | 0.49706 | 3.6906 | 96.0437 | 315.6379 | 5.48625 | – |
| 2026 Apr 26 17:58 | 2026 Apr 24 05:02:44 | 51.6883 | 0.49706 | 3.6906 | 96.0437 | 315.6379 | 5.48625 | – |
| 2026 Apr 25 17:58 | 2026 Apr 24 05:02:44 | 51.6883 | 0.49706 | 3.6906 | 96.0437 | 315.6379 | 5.48625 | – |
| 2026 Apr 24 17:59 | 2026 Apr 24 05:02:44 | 51.6883 | 0.49706 | 3.6906 | 96.0437 | 315.6379 | 5.48625 | – |
| 2026 Apr 23 17:57 | 2026 Apr 19 06:56:25 | 51.6861 | 0.49699 | 3.9446 | 93.2208 | 315.6379 | 5.48625 | – |
| 2026 Apr 22 17:57 | 2026 Apr 19 06:56:25 | 51.6861 | 0.49699 | 3.9446 | 93.2208 | 315.6379 | 5.48625 | – |
| 2026 Apr 21 17:57 | 2026 Apr 19 06:56:25 | 51.6861 | 0.49699 | 3.9446 | 93.2208 | 315.6379 | 5.48625 | – |
| 2026 Apr 20 17:57 | 2026 Apr 19 06:56:25 | 51.6861 | 0.49699 | 3.9446 | 93.2208 | 315.6379 | 5.48625 | – |
| 2026 Apr 19 17:58 | 2026 Apr 19 06:56:25 | 51.6861 | 0.49699 | 3.9446 | 93.2208 | 315.6379 | 5.48625 | – |
| 2026 Apr 18 17:56 | 2026 Apr 13 06:35:00 | 51.6889 | 0.49691 | 4.2553 | 89.7543 | 315.6379 | 5.48625 | – |
| 2026 Apr 16 17:57 | 2026 Apr 13 06:35:00 | 51.6889 | 0.49691 | 4.2553 | 89.7543 | 315.6379 | 5.48625 | – |
| 2026 Apr 14 17:57 | 2026 Apr 13 06:35:00 | 51.6889 | 0.49691 | 4.2553 | 89.7543 | 315.6379 | 5.48625 | – |
| 2026 Apr 13 17:57 | 2026 Apr 13 06:35:00 | 51.6889 | 0.49691 | 4.2553 | 89.7543 | 315.6379 | 5.48625 | – |
| 2026 Apr 12 17:57 | 2026 Apr 08 04:05:34 | 51.6872 | 0.49683 | 4.5186 | 86.8288 | 315.6379 | 5.48625 | – |
| 2026 Apr 11 17:57 | 2026 Apr 08 04:05:34 | 51.6872 | 0.49683 | 4.5186 | 86.8288 | 315.6379 | 5.48625 | – |
| 2026 Apr 10 17:58 | 2026 Apr 08 04:05:34 | 51.6872 | 0.49683 | 4.5186 | 86.8288 | 315.6379 | 5.48625 | – |